createdAt,value
2022-12-23T00:02:54.844Z,34.70
2022-12-23T00:05:59.225Z,37.87
2022-12-23T00:09:02.648Z,33.50
2022-12-23T00:12:24.359Z,35.43
2022-12-23T00:15:29.357Z,30.30
2022-12-23T00:18:33.026Z,36.03
2022-12-23T00:21:36.886Z,33.57
2022-12-23T00:24:40.084Z,41.37
2022-12-23T00:28:01.239Z,39.20
2022-12-23T00:31:08.108Z,33.77
2022-12-23T00:34:12.947Z,38.07
2022-12-23T00:37:16.112Z,33.63
2022-12-23T00:40:37.062Z,42.07
2022-12-23T00:43:40.276Z,36.10
2022-12-23T00:46:45.156Z,39.30
2022-12-23T00:49:47.589Z,33.23
2022-12-23T00:52:50.734Z,34.50
2022-12-23T00:55:54.230Z,41.00
2022-12-23T00:58:57.791Z,38.40
2022-12-23T01:02:20.579Z,39.30
2022-12-23T01:05:39.829Z,43.70
2022-12-23T01:08:43.614Z,34.07
2022-12-23T01:11:46.804Z,40.03
2022-12-23T01:14:50.848Z,43.13
2022-12-23T01:17:56.605Z,37.67
2022-12-23T01:21:04.123Z,20.70
2022-12-23T01:24:08.473Z,27.70
2022-12-23T01:27:12.060Z,28.10
2022-12-23T01:30:15.684Z,34.87
2022-12-23T01:33:20.418Z,29.70
2022-12-23T01:36:24.799Z,38.87
2022-12-23T01:39:28.483Z,34.43
2022-12-23T01:42:47.558Z,37.87
2022-12-23T01:45:51.136Z,32.60
2022-12-23T01:48:56.467Z,35.63
2022-12-23T01:51:59.698Z,39.10
2022-12-23T01:55:03.791Z,34.40
2022-12-23T01:58:13.737Z,37.33
2022-12-23T02:01:35.021Z,41.53
2022-12-23T02:04:39.613Z,31.90
2022-12-23T02:08:03.264Z,42.63
2022-12-23T02:11:35.836Z,35.13
2022-12-23T02:15:14.744Z,42.27
2022-12-23T02:18:38.438Z,36.83
2022-12-23T02:22:14.247Z,40.30
2022-12-23T02:25:49.237Z,40.03
2022-12-23T02:29:32.039Z,41.17
2022-12-23T02:32:58.316Z,35.73
2022-12-23T02:36:18.629Z,41.67
2022-12-23T02:39:36.963Z,44.67
2022-12-23T02:42:48.212Z,37.67
2022-12-23T02:46:01.157Z,39.13
2022-12-23T02:49:12.625Z,36.27
2022-12-23T02:52:20.229Z,36.37
2022-12-23T02:55:29.237Z,37.70
2022-12-23T02:58:41.436Z,35.77
2022-12-23T03:01:47.094Z,43.90
2022-12-23T03:04:51.854Z,33.73
2022-12-23T03:07:59.561Z,38.43
2022-12-23T03:11:11.031Z,40.50
2022-12-23T03:14:53.612Z,44.73
2022-12-23T03:18:05.197Z,39.03
2022-12-23T03:21:17.204Z,42.43
2022-12-23T03:24:27.816Z,41.57
2022-12-23T03:27:39.948Z,39.87
2022-12-23T03:30:54.074Z,39.57
2022-12-23T03:34:02.853Z,38.37
2022-12-23T03:37:12.304Z,43.43
2022-12-23T03:40:21.679Z,36.33
2022-12-23T03:43:32.068Z,35.77
2022-12-23T03:46:46.786Z,37.60
2022-12-23T03:49:58.003Z,41.47
2022-12-23T03:53:09.107Z,33.83
2022-12-23T03:56:21.914Z,39.73
2022-12-23T03:59:29.881Z,42.93
2022-12-23T04:02:40.441Z,37.40
2022-12-23T04:05:51.012Z,43.77
2022-12-23T04:08:55.819Z,40.97
2022-12-23T04:12:00.007Z,39.13
2022-12-23T04:15:07.503Z,36.97
2022-12-23T04:18:13.974Z,42.93
2022-12-23T04:21:18.143Z,38.30
2022-12-23T04:24:24.574Z,36.47
2022-12-23T04:27:27.857Z,32.53
2022-12-23T04:30:34.346Z,36.70
2022-12-23T04:33:37.938Z,35.87
2022-12-23T04:36:40.943Z,37.20
2022-12-23T04:39:45.239Z,37.77
2022-12-23T04:42:48.730Z,39.07
2022-12-23T04:45:53.238Z,36.27
2022-12-23T04:48:57.529Z,39.87
2022-12-23T04:52:00.844Z,40.50
2022-12-23T04:55:08.866Z,40.27
2022-12-23T04:58:12.373Z,39.13
2022-12-23T05:01:16.854Z,39.40
2022-12-23T05:04:23.672Z,38.70
2022-12-23T05:07:27.180Z,33.23
2022-12-23T05:10:31.619Z,35.30
2022-12-23T05:13:34.675Z,24.97
2022-12-23T05:16:37.884Z,31.20
2022-12-23T05:19:41.205Z,32.03
2022-12-23T05:22:44.236Z,36.03
2022-12-23T05:25:53.879Z,31.77
2022-12-23T05:28:57.135Z,27.17
2022-12-23T05:32:03.570Z,20.37
2022-12-23T05:35:12.044Z,51.43
2022-12-23T05:38:15.178Z,34.47
2022-12-23T05:41:19.552Z,27.00
2022-12-23T05:44:22.568Z,43.80
2022-12-23T05:47:25.651Z,37.40
2022-12-23T05:50:32.301Z,38.60
2022-12-23T05:53:37.930Z,32.43
2022-12-23T05:56:42.435Z,36.00
2022-12-23T05:59:45.414Z,35.23
2022-12-23T06:02:53.495Z,60.70
2022-12-23T06:05:57.313Z,40.80
2022-12-23T06:09:00.545Z,41.57
2022-12-23T06:12:05.632Z,61.63
2022-12-23T06:15:09.958Z,41.17
2022-12-23T06:18:12.938Z,39.73
2022-12-23T06:21:15.951Z,45.07
2022-12-23T06:24:18.984Z,35.70
2022-12-23T06:27:23.342Z,30.87
2022-12-23T06:30:26.395Z,39.80
2022-12-23T06:33:29.631Z,30.70
2022-12-23T06:36:54.289Z,23.97
2022-12-23T06:39:57.561Z,29.67
2022-12-23T06:43:02.288Z,23.10
2022-12-23T06:46:05.912Z,65.23
2022-12-23T06:55:14.022Z,48.63
2022-12-23T06:58:18.489Z,37.53
2022-12-23T07:01:22.266Z,29.03
2022-12-23T07:04:25.211Z,48.17
2022-12-23T07:07:32.141Z,45.73
2022-12-23T07:10:35.219Z,36.60
2022-12-23T07:13:39.512Z,74.33
2022-12-23T07:16:42.652Z,52.63
2022-12-23T07:19:45.787Z,74.43
2022-12-23T07:22:50.386Z,53.10
2022-12-23T07:25:53.341Z,40.23
2022-12-23T07:28:57.645Z,40.27
2022-12-23T07:32:02.751Z,36.50
2022-12-23T07:35:06.991Z,76.87
2022-12-23T07:38:10.952Z,49.70
2022-12-23T07:41:13.909Z,54.90
2022-12-23T07:44:18.217Z,32.07
2022-12-23T07:47:21.241Z,49.60
2022-12-23T07:50:25.386Z,34.87
2022-12-23T07:53:28.560Z,42.67
2022-12-23T07:56:31.543Z,35.40
2022-12-23T07:59:38.722Z,33.60
2022-12-23T08:02:43.464Z,40.50
2022-12-23T08:05:47.708Z,44.70
2022-12-23T08:08:51.264Z,34.70
2022-12-23T08:11:54.347Z,38.27
2022-12-23T08:14:58.914Z,45.97
2022-12-23T08:18:01.911Z,43.67
2022-12-23T08:21:08.225Z,43.00
2022-12-23T08:24:11.282Z,43.80
2022-12-23T08:27:14.444Z,40.27
2022-12-23T08:30:19.007Z,36.90
2022-12-23T08:33:22.283Z,46.90
2022-12-23T08:36:28.743Z,43.57
2022-12-23T08:39:31.780Z,49.20
2022-12-23T08:42:35.063Z,46.37
2022-12-23T08:45:40.161Z,49.03
2022-12-23T08:48:48.950Z,50.97
2022-12-23T08:51:52.800Z,55.77
2022-12-23T08:54:55.817Z,47.20
2022-12-23T08:57:58.861Z,46.83
2022-12-23T09:01:06.723Z,46.83
2022-12-23T09:04:10.703Z,53.80
2022-12-23T09:07:13.835Z,48.47
2022-12-23T09:10:17.212Z,39.83
2022-12-23T09:13:29.390Z,45.50
2022-12-23T09:16:39.834Z,35.90
2022-12-23T09:19:45.899Z,46.17
2022-12-23T09:22:53.490Z,43.17
2022-12-23T09:25:56.936Z,37.73
2022-12-23T09:29:00.652Z,47.10
2022-12-23T09:32:05.099Z,50.13
2022-12-23T09:35:10.051Z,46.00
2022-12-23T09:38:13.057Z,50.03
2022-12-23T09:41:31.189Z,45.00
2022-12-23T09:45:13.849Z,55.30
2022-12-23T09:48:22.784Z,52.97
2022-12-23T09:51:26.006Z,42.87
2022-12-23T09:54:33.630Z,50.73
2022-12-23T09:57:46.550Z,54.70
2022-12-23T10:01:06.205Z,58.47
2022-12-23T10:04:35.772Z,59.20
2022-12-23T10:07:45.779Z,56.80
2022-12-23T10:10:53.189Z,54.87
2022-12-23T10:14:01.233Z,52.23
2022-12-23T10:17:15.137Z,59.83
2022-12-23T10:20:28.600Z,60.20
2022-12-23T10:23:38.202Z,66.93
2022-12-23T10:26:52.502Z,68.10
2022-12-23T10:29:56.205Z,67.07
2022-12-23T10:33:05.608Z,61.00
2022-12-23T10:36:17.118Z,51.57
2022-12-23T10:39:29.619Z,61.37
2022-12-23T10:42:39.539Z,58.70
2022-12-23T10:45:52.821Z,51.63
2022-12-23T10:49:07.490Z,48.77
2022-12-23T10:52:17.686Z,52.20
2022-12-23T10:55:33.268Z,47.83
2022-12-23T11:04:24.361Z,45.43
2022-12-23T11:07:56.947Z,36.23
2022-12-23T11:11:03.621Z,42.17
2022-12-23T11:14:06.662Z,38.07
2022-12-23T11:17:54.965Z,38.60
2022-12-23T11:21:07.209Z,39.47
2022-12-23T11:24:18.067Z,37.03
2022-12-23T11:27:21.499Z,35.93
2022-12-23T11:30:25.487Z,31.30
2022-12-23T11:33:32.322Z,28.57
2022-12-23T11:36:36.473Z,31.80
2022-12-23T11:39:47.909Z,29.20
2022-12-23T11:42:57.483Z,25.63
2022-12-23T11:46:22.603Z,25.17
2022-12-23T11:49:28.045Z,24.53
2022-12-23T11:52:33.373Z,22.17
2022-12-23T11:55:43.273Z,24.83
2022-12-23T11:58:50.369Z,23.77
2022-12-23T12:01:53.920Z,25.50
2022-12-23T12:05:01.920Z,28.87
2022-12-23T12:08:10.761Z,26.83
2022-12-23T12:11:19.555Z,24.77
2022-12-23T12:14:29.206Z,29.57
2022-12-23T12:17:38.907Z,28.30
2022-12-23T12:20:46.386Z,30.63
2022-12-23T12:24:08.345Z,31.37
2022-12-23T12:27:19.024Z,31.40
2022-12-23T12:30:23.067Z,31.67
2022-12-23T12:33:35.881Z,30.97
2022-12-23T12:36:45.150Z,31.80
2022-12-23T12:39:55.290Z,35.93
2022-12-23T12:43:06.326Z,36.30
2022-12-23T12:46:23.755Z,32.33
2022-12-23T12:49:34.016Z,28.50
2022-12-23T12:52:42.114Z,31.10
2022-12-23T12:55:52.003Z,28.87
2022-12-23T12:59:03.406Z,26.87
2022-12-23T13:02:30.422Z,27.17
2022-12-23T13:05:58.968Z,26.83
2022-12-23T13:09:12.080Z,25.37
2022-12-23T13:12:26.140Z,22.97
2022-12-23T13:15:37.352Z,19.30
2022-12-23T13:18:49.250Z,26.43
2022-12-23T13:22:00.567Z,21.53
2022-12-23T13:25:11.921Z,20.43
2022-12-23T13:28:31.685Z,19.53
2022-12-23T13:31:50.653Z,22.30
2022-12-23T13:35:04.513Z,21.47
2022-12-23T13:38:24.422Z,23.63
2022-12-23T13:41:34.395Z,22.47
2022-12-23T13:44:37.818Z,24.33
2022-12-23T13:47:50.433Z,22.50
2022-12-23T13:51:02.172Z,22.77
2022-12-23T13:54:17.234Z,20.87
2022-12-23T13:57:43.022Z,24.30
2022-12-23T14:00:47.180Z,22.40
2022-12-23T14:03:52.427Z,19.03
2022-12-23T14:06:58.489Z,24.63
2022-12-23T14:10:14.970Z,21.30
2022-12-23T14:13:19.436Z,19.93
2022-12-23T14:16:47.029Z,21.33
2022-12-23T14:20:11.350Z,22.47
2022-12-23T14:23:33.332Z,19.27
2022-12-23T14:27:03.697Z,20.30
2022-12-23T14:30:14.906Z,18.90
2022-12-23T14:33:25.568Z,20.40
2022-12-23T14:36:30.029Z,17.37
2022-12-23T14:39:34.371Z,25.20
2022-12-23T14:42:42.734Z,17.93
2022-12-23T14:45:46.041Z,18.53
2022-12-23T14:49:40.129Z,21.53
2022-12-23T14:52:51.144Z,20.53
2022-12-23T14:56:13.552Z,16.97
2022-12-23T14:59:31.734Z,19.60
2022-12-23T15:02:38.837Z,19.50
2022-12-23T15:05:43.476Z,20.83
2022-12-23T15:08:50.037Z,20.57
2022-12-23T15:11:54.994Z,19.97
2022-12-23T15:15:03.797Z,21.60
2022-12-23T15:18:13.411Z,21.07
2022-12-23T15:21:16.448Z,24.23
2022-12-23T15:24:23.181Z,21.47
2022-12-23T15:27:28.815Z,22.47
2022-12-23T15:30:38.520Z,23.50
2022-12-23T15:37:11.197Z,22.07
2022-12-23T15:40:27.208Z,21.73
2022-12-23T15:43:30.966Z,23.10
2022-12-23T15:46:33.977Z,22.83
2022-12-23T15:49:37.073Z,20.13
2022-12-23T15:52:42.501Z,25.43
2022-12-23T15:55:49.612Z,24.57
2022-12-23T15:58:54.366Z,24.93
2022-12-23T16:01:57.872Z,25.13
2022-12-23T16:05:05.398Z,25.23
2022-12-23T16:08:28.622Z,26.87
2022-12-23T16:11:51.480Z,21.13
2022-12-23T16:14:56.928Z,25.00
2022-12-23T16:18:14.195Z,24.73
2022-12-23T16:21:17.241Z,22.60
2022-12-23T16:24:22.058Z,27.37
2022-12-23T16:27:36.357Z,22.70
2022-12-23T16:30:43.523Z,21.03
2022-12-23T16:33:50.818Z,23.63
2022-12-23T16:36:53.861Z,23.03
2022-12-23T16:39:57.037Z,22.97
2022-12-23T16:43:01.705Z,22.80
2022-12-23T16:46:05.223Z,23.03
2022-12-23T16:49:10.938Z,24.23
2022-12-23T16:52:15.153Z,29.57
2022-12-23T16:55:20.924Z,26.80
2022-12-23T16:58:25.447Z,23.07
2022-12-23T17:01:32.154Z,25.30
2022-12-23T17:04:35.184Z,26.97
2022-12-23T17:07:43.214Z,25.93
2022-12-23T17:10:49.274Z,26.03
2022-12-23T17:13:59.624Z,27.57
2022-12-23T17:17:18.194Z,27.10
2022-12-23T17:20:23.311Z,27.47
2022-12-23T17:23:31.560Z,29.07
2022-12-23T17:26:34.630Z,31.37
2022-12-23T17:29:38.946Z,26.97
2022-12-23T17:32:43.222Z,29.50
2022-12-23T17:35:46.263Z,29.27
2022-12-23T17:38:49.274Z,26.97
2022-12-23T17:41:52.592Z,31.90
2022-12-23T17:44:56.917Z,26.47
2022-12-23T17:47:59.917Z,26.20
2022-12-23T17:51:06.431Z,28.80
2022-12-23T17:54:22.527Z,27.70
2022-12-23T17:57:28.025Z,31.20
2022-12-23T18:00:34.627Z,27.73
2022-12-23T18:03:37.825Z,27.50
2022-12-23T18:06:41.020Z,29.53
2022-12-23T18:09:44.278Z,29.13
2022-12-23T18:12:50.414Z,30.50
2022-12-23T18:15:54.789Z,30.13
2022-12-23T18:18:58.072Z,27.77
2022-12-23T18:22:01.060Z,28.57
2022-12-23T18:25:04.778Z,39.40
2022-12-23T18:28:07.982Z,44.20
2022-12-23T18:31:17.051Z,51.93
2022-12-23T18:34:20.849Z,52.37
2022-12-23T18:37:25.053Z,40.07
2022-12-23T18:40:33.171Z,41.27
2022-12-23T18:43:36.613Z,47.40
2022-12-23T18:46:41.027Z,42.37
2022-12-23T18:49:44.107Z,36.83
2022-12-23T18:52:47.540Z,29.33
2022-12-23T18:55:51.297Z,20.77
2022-12-23T18:58:54.357Z,27.30
2022-12-23T19:01:59.058Z,24.40
2022-12-23T19:05:04.213Z,31.90
2022-12-23T19:08:07.768Z,30.77
2022-12-23T19:11:13.781Z,28.27
2022-12-23T19:14:17.339Z,30.97
2022-12-23T19:17:22.260Z,43.27
2022-12-23T19:20:25.610Z,40.83
2022-12-23T19:23:29.344Z,38.70
2022-12-23T19:31:21.467Z,40.73
2022-12-23T19:34:50.675Z,37.97
2022-12-23T19:38:39.619Z,41.03
2022-12-23T19:42:12.852Z,44.63
2022-12-23T19:46:09.087Z,48.33
2022-12-23T19:50:15.972Z,46.73
2022-12-23T19:53:56.580Z,46.03
2022-12-23T20:13:24.411Z,41.90
2022-12-23T20:18:09.691Z,42.40
2022-12-23T20:27:31.255Z,41.30
2022-12-23T20:32:21.818Z,50.17
2022-12-23T20:40:50.993Z,49.60
2022-12-23T20:44:36.165Z,44.73
2022-12-23T20:48:08.537Z,47.13
2022-12-23T20:51:53.387Z,48.50
2022-12-23T20:55:48.114Z,47.80
2022-12-23T20:59:26.395Z,43.37
2022-12-23T21:50:44.939Z,42.43
2022-12-23T21:54:17.135Z,39.33
2022-12-23T21:57:51.679Z,44.27
2022-12-23T22:06:35.044Z,37.73
2022-12-23T22:10:09.411Z,34.47
2022-12-23T22:14:34.849Z,32.90
2022-12-23T22:18:02.574Z,27.53
2022-12-23T22:21:37.769Z,27.83
2022-12-23T22:24:44.142Z,31.13
2022-12-23T22:27:49.019Z,25.60
2022-12-23T22:30:55.223Z,27.17
2022-12-23T22:34:01.580Z,26.97
2022-12-23T22:37:11.347Z,23.87
2022-12-23T22:40:27.407Z,27.10
2022-12-23T22:43:39.266Z,26.73
2022-12-23T22:46:56.261Z,27.13
2022-12-23T22:50:53.961Z,21.23
2022-12-23T22:54:04.064Z,25.23
2022-12-23T22:57:09.417Z,25.33
2022-12-23T23:00:19.923Z,21.67
2022-12-23T23:03:32.087Z,25.27
2022-12-23T23:06:38.898Z,20.83
2022-12-23T23:09:43.846Z,23.43
2022-12-23T23:13:03.060Z,23.70
2022-12-23T23:16:14.000Z,24.10
2022-12-23T23:19:20.347Z,22.63
2022-12-23T23:22:28.553Z,19.00
2022-12-23T23:25:45.124Z,21.37
2022-12-23T23:28:54.089Z,23.83
2022-12-23T23:32:02.494Z,26.93
2022-12-23T23:35:10.840Z,22.23
2022-12-23T23:38:28.357Z,25.43
2022-12-23T23:41:32.189Z,21.70
2022-12-23T23:44:38.038Z,25.20
2022-12-23T23:47:54.895Z,21.67
2022-12-23T23:51:12.681Z,20.97
2022-12-23T23:54:16.071Z,21.27
2022-12-23T23:57:25.286Z,20.10
